createdAt,value
2023-03-21T00:00:31.897Z,99633.53
2023-03-21T00:03:00.105Z,99636.84
2023-03-21T00:05:28.274Z,99626.81
2023-03-21T00:07:56.239Z,99630.22
2023-03-21T00:10:39.018Z,99599.72
2023-03-21T00:13:08.225Z,99623.41
2023-03-21T00:16:04.011Z,99618.16
2023-03-21T00:18:36.832Z,99617.13
2023-03-21T00:21:37.616Z,99623.81
2023-03-21T00:23:54.943Z,99625.66
2023-03-21T00:26:23.586Z,99626.63
2023-03-21T00:28:52.039Z,99624.13
2023-03-21T00:31:23.176Z,99626.72
2023-03-21T00:33:51.191Z,99614.19
2023-03-21T00:36:19.191Z,99609.94
2023-03-21T00:38:47.088Z,99613.31
2023-03-21T00:41:25.796Z,99618.41
2023-03-21T00:43:59.637Z,99607.22
2023-03-21T00:46:42.748Z,99619.09
2023-03-21T00:49:13.574Z,99620.75
2023-03-21T00:51:43.633Z,99621.53
2023-03-21T00:54:13.594Z,99623.94
2023-03-21T00:56:42.323Z,99617.25
2023-03-21T00:59:11.176Z,99616.47
2023-03-21T01:01:40.400Z,99614.63
2023-03-21T01:04:13.614Z,99604.53
2023-03-21T01:06:43.307Z,99610.34
2023-03-21T01:09:14.939Z,99611.19
2023-03-21T01:11:43.282Z,99611.13
2023-03-21T01:14:28.564Z,99619.44
2023-03-21T01:16:57.943Z,99621.06
2023-03-21T01:19:41.006Z,99626.81
2023-03-21T01:22:16.405Z,99617.53
2023-03-21T01:24:52.956Z,99615.78
2023-03-21T01:27:23.580Z,99618.34
2023-03-21T01:29:51.994Z,99622.47
2023-03-21T01:32:21.837Z,99615.78
2023-03-21T01:34:49.949Z,99619.94
2023-03-21T01:37:20.000Z,99610.59
2023-03-21T01:39:50.485Z,99610.63
2023-03-21T01:42:18.421Z,99614.03
2023-03-21T01:44:56.725Z,99612.81
2023-03-21T01:47:27.198Z,99603.66
2023-03-21T01:50:10.400Z,99608.69
2023-03-21T01:52:56.673Z,99608.94
2023-03-21T01:55:33.944Z,99602.38
2023-03-21T01:58:14.083Z,99596.56
2023-03-21T02:00:52.415Z,99602.47
2023-03-21T02:03:38.229Z,99605.06
2023-03-21T02:06:31.998Z,99603.38
2023-03-21T02:09:13.163Z,99605.06
2023-03-21T02:11:46.405Z,99607.63
2023-03-21T02:14:26.567Z,99592.47
2023-03-21T02:17:11.925Z,99600.94
2023-03-21T02:20:42.905Z,99594.19
2023-03-21T02:23:45.520Z,99597.97
2023-03-21T02:26:52.499Z,99594.44
2023-03-21T02:29:54.835Z,99599.50
2023-03-21T02:32:38.100Z,99601.13
2023-03-21T02:35:25.757Z,99600.19
2023-03-21T02:38:01.371Z,99609.41
2023-03-21T02:40:36.322Z,99599.34
2023-03-21T02:43:20.861Z,99604.34
2023-03-21T02:45:54.251Z,99603.34
2023-03-21T02:48:35.337Z,99605.69
2023-03-21T02:51:14.088Z,99601.44
2023-03-21T02:53:51.717Z,99597.22
2023-03-21T02:56:27.333Z,99601.44
2023-03-21T02:58:57.227Z,99610.59
2023-03-21T03:01:26.025Z,99605.59
2023-03-21T03:03:54.294Z,99602.97
2023-03-21T03:06:27.857Z,99605.38
2023-03-21T03:09:08.762Z,99600.22
2023-03-21T03:11:38.892Z,99604.25
2023-03-21T03:17:21.421Z,99596.16
2023-03-21T03:20:16.201Z,99587.81
2023-03-21T03:22:53.228Z,99582.72
2023-03-21T03:25:41.715Z,99586.88
2023-03-21T03:28:12.788Z,99593.56
2023-03-21T03:30:48.694Z,99597.66
2023-03-21T03:33:26.697Z,99590.97
2023-03-21T03:36:04.916Z,99592.63
2023-03-21T03:38:38.046Z,99589.97
2023-03-21T03:41:11.725Z,99597.38
2023-03-21T03:43:54.001Z,99600.06
2023-03-21T03:46:29.383Z,99594.97
2023-03-21T03:49:01.597Z,99591.66
2023-03-21T03:51:34.921Z,99595.06
2023-03-21T03:54:26.994Z,99595.06
2023-03-21T03:56:57.515Z,99593.44
2023-03-21T03:59:26.207Z,99598.19
2023-03-21T04:02:15.111Z,99602.94
2023-03-21T04:04:43.357Z,99600.34
2023-03-21T04:07:11.367Z,99600.97
2023-03-21T04:09:44.531Z,99604.16
2023-03-21T04:12:16.159Z,99609.16
2023-03-21T04:15:04.905Z,99608.38
2023-03-21T04:17:39.597Z,99608.41
2023-03-21T04:20:15.067Z,99606.66
2023-03-21T04:22:44.815Z,99608.44
2023-03-21T04:25:18.994Z,99605.09
2023-03-21T04:27:57.508Z,99602.75
2023-03-21T04:30:39.788Z,99602.84
2023-03-21T04:33:14.233Z,99612.81
2023-03-21T04:35:50.202Z,99617.72
2023-03-21T04:38:19.274Z,99613.53
2023-03-21T04:40:47.263Z,99614.28
2023-03-21T04:43:16.588Z,99617.72
2023-03-21T04:45:44.581Z,99617.69
2023-03-21T04:48:14.302Z,99619.34
2023-03-21T04:50:42.385Z,99619.44
2023-03-21T04:53:10.295Z,99616.88
2023-03-21T04:55:38.599Z,99620.94
2023-03-21T04:58:07.639Z,99622.50
2023-03-21T05:00:38.447Z,99615.84
2023-03-21T05:03:09.002Z,99620.19
2023-03-21T05:05:37.854Z,99612.06
2023-03-21T05:08:07.333Z,99622.16
2023-03-21T05:10:35.567Z,99625.31
2023-03-21T05:13:03.775Z,99627.81
2023-03-21T05:15:34.114Z,99631.88
2023-03-21T05:18:10.967Z,99629.81
2023-03-21T05:20:47.237Z,99630.22
2023-03-21T05:23:18.467Z,99626.94
2023-03-21T05:25:46.787Z,99628.91
2023-03-21T05:28:31.358Z,99630.13
2023-03-21T05:31:01.703Z,99635.13
2023-03-21T05:33:31.545Z,99638.78
2023-03-21T05:35:59.801Z,99636.31
2023-03-21T05:38:31.549Z,99629.69
2023-03-21T05:41:00.197Z,99633.94
2023-03-21T05:43:28.927Z,99633.44
2023-03-21T05:45:57.169Z,99622.81
2023-03-21T05:48:28.791Z,99630.81
2023-03-21T05:51:12.428Z,99631.91
2023-03-21T05:53:40.400Z,99632.00
2023-03-21T05:56:09.843Z,99621.13
2023-03-21T05:58:51.813Z,99631.28
2023-03-21T06:01:20.753Z,99640.38
2023-03-21T06:03:57.040Z,99635.16
2023-03-21T06:06:29.450Z,99629.41
2023-03-21T06:09:01.991Z,99631.16
2023-03-21T06:11:34.601Z,99638.81
2023-03-21T06:14:31.916Z,99634.78
2023-03-21T06:17:20.176Z,99635.00
2023-03-21T06:19:52.893Z,99630.06
2023-03-21T06:22:35.876Z,99634.22
2023-03-21T06:25:05.449Z,99632.41
2023-03-21T06:27:33.611Z,99634.09
2023-03-21T06:30:01.783Z,99647.38
2023-03-21T06:32:35.640Z,99639.06
2023-03-21T06:35:11.123Z,99637.38
2023-03-21T06:37:40.923Z,99645.88
2023-03-21T06:40:13.753Z,99648.47
2023-03-21T06:42:43.328Z,99646.78
2023-03-21T06:45:12.746Z,99645.25
2023-03-21T06:47:40.818Z,99644.34
2023-03-21T06:50:16.554Z,99646.94
2023-03-21T06:52:47.190Z,99644.56
2023-03-21T06:55:16.085Z,99653.84
2023-03-21T06:57:44.602Z,99648.91
2023-03-21T07:00:14.648Z,99652.50
2023-03-21T07:02:48.302Z,99659.44
2023-03-21T07:05:19.786Z,99649.34
2023-03-21T07:07:49.470Z,99650.00
2023-03-21T07:10:17.591Z,99660.78
2023-03-21T07:13:02.748Z,99654.81
2023-03-21T07:15:49.261Z,99664.66
2023-03-21T07:18:17.293Z,99665.41
2023-03-21T07:20:50.909Z,99661.16
2023-03-21T07:23:21.592Z,99669.38
2023-03-21T07:25:50.543Z,99666.25
2023-03-21T07:28:19.840Z,99655.41
2023-03-21T07:30:53.918Z,99665.88
2023-03-21T07:33:23.185Z,99664.25
2023-03-21T07:35:51.577Z,99667.69
2023-03-21T07:38:21.787Z,99662.75
2023-03-21T07:40:50.425Z,99671.22
2023-03-21T07:45:57.891Z,99658.00
2023-03-21T07:48:27.757Z,99651.31
2023-03-21T07:50:55.603Z,99653.25
2023-03-21T07:53:24.986Z,99658.38
2023-03-21T07:55:53.143Z,99662.72
2023-03-21T07:58:21.091Z,99656.16
2023-03-21T08:00:49.090Z,99662.97
2023-03-21T08:03:17.156Z,99656.25
2023-03-21T08:05:45.555Z,99658.06
2023-03-21T08:08:13.839Z,99658.97
2023-03-21T08:10:44.826Z,99652.34
2023-03-21T08:13:13.814Z,99658.38
2023-03-21T08:15:42.498Z,99656.00
2023-03-21T08:18:11.446Z,99658.63
2023-03-21T08:20:39.682Z,99654.53
2023-03-21T08:23:07.594Z,99659.59
2023-03-21T08:25:35.703Z,99650.44
2023-03-21T08:28:05.420Z,99649.69
2023-03-21T08:30:33.482Z,99646.44
2023-03-21T08:33:02.303Z,99648.28
2023-03-21T08:35:31.481Z,99643.38
2023-03-21T08:37:59.402Z,99649.34
2023-03-21T08:40:27.293Z,99651.91
2023-03-21T08:42:55.974Z,99656.13
2023-03-21T08:45:27.073Z,99652.00
2023-03-21T08:47:56.080Z,99660.47
2023-03-21T08:50:26.622Z,99655.50
2023-03-21T08:52:55.049Z,99652.25
2023-03-21T08:55:22.995Z,99648.06
2023-03-21T08:57:50.881Z,99647.25
2023-03-21T09:00:20.718Z,99644.84
2023-03-21T09:02:52.306Z,99643.22
2023-03-21T09:05:20.426Z,99647.53
2023-03-21T09:07:49.675Z,99645.88
2023-03-21T09:10:21.434Z,99644.25
2023-03-21T09:12:51.169Z,99646.03
2023-03-21T09:15:21.836Z,99647.78
2023-03-21T09:17:53.222Z,99652.91
2023-03-21T09:20:26.343Z,99648.81
2023-03-21T09:22:55.009Z,99629.50
2023-03-21T09:25:23.750Z,99645.69
2023-03-21T09:27:54.394Z,99637.53
2023-03-21T09:30:24.882Z,99630.28
2023-03-21T09:32:55.956Z,99612.88
2023-03-21T09:35:24.788Z,99628.22
2023-03-21T09:37:52.843Z,99630.03
2023-03-21T09:40:25.579Z,99636.03
2023-03-21T09:43:05.933Z,99627.78
2023-03-21T09:45:39.703Z,99621.16
2023-03-21T09:48:20.060Z,99622.09
2023-03-21T09:50:48.605Z,99595.09
2023-03-21T09:53:23.628Z,99620.53
2023-03-21T09:55:52.024Z,99618.03
2023-03-21T09:58:27.168Z,99629.06
2023-03-21T10:01:02.503Z,99622.47
2023-03-21T10:03:35.177Z,99613.25
2023-03-21T10:06:08.410Z,99615.75
2023-03-21T10:08:38.608Z,99609.88
2023-03-21T10:11:13.297Z,99600.66
2023-03-21T10:13:45.669Z,99602.34
2023-03-21T10:16:16.842Z,99599.81
2023-03-21T10:18:46.889Z,99598.97
2023-03-21T10:21:47.569Z,99603.13
2023-03-21T10:24:13.143Z,99594.72
2023-03-21T10:26:42.130Z,99600.59
2023-03-21T10:29:15.096Z,99601.47
2023-03-21T10:31:44.276Z,99593.13
2023-03-21T10:34:19.116Z,99591.53
2023-03-21T10:36:47.948Z,99592.31
2023-03-21T10:39:26.264Z,99593.09
2023-03-21T10:41:54.773Z,99594.81
2023-03-21T10:44:22.968Z,99593.09
2023-03-21T10:46:54.159Z,99595.59
2023-03-21T10:49:23.689Z,99592.28
2023-03-21T10:51:54.642Z,99595.66
2023-03-21T10:54:27.761Z,99587.25
2023-03-21T10:56:58.993Z,99591.50
2023-03-21T10:59:35.682Z,99586.47
2023-03-21T11:02:05.838Z,99589.84
2023-03-21T11:04:38.027Z,99579.88
2023-03-21T11:07:08.216Z,99579.19
2023-03-21T11:09:48.080Z,99571.75
2023-03-21T11:12:17.597Z,99579.34
2023-03-21T11:14:47.399Z,99580.19
2023-03-21T11:17:29.200Z,99576.00
2023-03-21T11:20:02.046Z,99589.41
2023-03-21T11:22:32.154Z,99582.66
2023-03-21T11:25:01.816Z,99580.91
2023-03-21T11:27:31.159Z,99569.03
2023-03-21T11:30:02.119Z,99567.25
2023-03-21T11:32:34.909Z,99563.81
2023-03-21T11:35:07.496Z,99563.72
2023-03-21T11:37:40.481Z,99560.31
2023-03-21T11:40:21.060Z,99554.34
2023-03-21T11:42:51.831Z,99556.00
2023-03-21T11:45:22.038Z,99547.63
2023-03-21T11:47:51.879Z,99544.28
2023-03-21T11:50:28.407Z,99539.41
2023-03-21T11:53:13.853Z,99527.75
2023-03-21T11:55:52.552Z,99530.34
2023-03-21T11:58:38.849Z,99525.31
2023-03-21T12:01:17.656Z,99527.03
2023-03-21T12:03:49.462Z,99528.66
2023-03-21T12:06:25.867Z,99514.31
2023-03-21T12:09:07.107Z,99517.63
2023-03-21T12:11:42.005Z,99494.88
2023-03-21T12:14:20.117Z,99501.56
2023-03-21T12:17:05.961Z,99502.44
2023-03-21T12:19:56.567Z,99500.84
2023-03-21T12:22:33.797Z,99501.00
2023-03-21T12:25:08.706Z,99502.00
2023-03-21T12:27:46.555Z,99490.28
2023-03-21T12:30:25.289Z,99496.19
2023-03-21T12:33:09.062Z,99492.81
2023-03-21T12:35:51.980Z,99493.66
2023-03-21T12:38:25.232Z,99484.41
2023-03-21T12:41:12.818Z,99491.97
2023-03-21T12:43:48.766Z,99470.94
2023-03-21T12:46:23.417Z,99487.72
2023-03-21T12:48:55.177Z,99485.19
2023-03-21T12:51:27.564Z,99485.19
2023-03-21T12:54:03.402Z,99486.03
2023-03-21T12:56:33.713Z,99482.69
2023-03-21T12:59:12.146Z,99482.69
2023-03-21T13:01:41.564Z,99479.34
2023-03-21T13:04:27.882Z,99485.22
2023-03-21T13:06:58.960Z,99460.81
2023-03-21T13:09:37.782Z,99472.66
2023-03-21T13:12:20.968Z,99465.06
2023-03-21T13:15:00.368Z,99459.97
2023-03-21T13:17:35.047Z,99460.81
2023-03-21T13:20:12.472Z,99454.97
2023-03-21T13:22:40.485Z,99460.00
2023-03-21T13:25:19.503Z,99448.22
2023-03-21T13:27:54.196Z,99453.28
2023-03-21T13:30:26.068Z,99459.16
2023-03-21T13:33:05.685Z,99454.97
2023-03-21T13:35:39.211Z,99460.84
2023-03-21T13:38:16.386Z,99454.13
2023-03-21T13:40:49.575Z,99444.00
2023-03-21T13:43:40.753Z,99448.03
2023-03-21T13:46:11.146Z,99448.78
2023-03-21T13:48:57.739Z,99446.34
2023-03-21T13:51:47.469Z,99454.78
2023-03-21T13:54:22.522Z,99448.09
2023-03-21T13:56:54.331Z,99440.59
2023-03-21T13:59:38.458Z,99443.97
2023-03-21T14:02:24.244Z,99440.59
2023-03-21T14:05:05.253Z,99437.22
2023-03-21T14:07:36.730Z,99422.13
2023-03-21T14:10:09.669Z,99426.31
2023-03-21T14:12:43.425Z,99435.56
2023-03-21T14:15:19.522Z,99423.81
2023-03-21T14:17:52.113Z,99423.78
2023-03-21T14:20:22.760Z,99424.59
2023-03-21T14:22:51.249Z,99421.22
2023-03-21T14:25:20.998Z,99419.53
2023-03-21T14:27:54.281Z,99413.56
2023-03-21T14:30:25.598Z,99412.56
2023-03-21T14:32:55.997Z,99418.31
2023-03-21T14:35:24.566Z,99413.19
2023-03-21T14:37:52.458Z,99404.75
2023-03-21T14:40:23.141Z,99412.19
2023-03-21T14:42:52.690Z,99399.38
2023-03-21T14:45:24.001Z,99399.22
2023-03-21T14:48:05.636Z,99410.94
2023-03-21T14:50:41.137Z,99405.66
2023-03-21T14:53:15.409Z,99390.09
2023-03-21T14:55:45.327Z,99401.66
2023-03-21T14:58:17.895Z,99392.34
2023-03-21T15:00:49.856Z,99391.44
2023-03-21T15:03:19.717Z,99387.31
2023-03-21T15:05:47.948Z,99401.63
2023-03-21T15:08:18.420Z,99390.66
2023-03-21T15:11:06.247Z,99398.19
2023-03-21T15:13:38.289Z,99398.06
2023-03-21T15:16:07.177Z,99390.38
2023-03-21T15:18:38.149Z,99371.06
2023-03-21T15:21:10.282Z,99388.56
2023-03-21T15:23:41.402Z,99387.59
2023-03-21T15:26:16.145Z,99377.34
2023-03-21T15:28:47.774Z,99376.56
2023-03-21T15:31:18.893Z,99381.63
2023-03-21T15:33:48.676Z,99372.13
2023-03-21T15:36:20.953Z,99375.56
2023-03-21T15:38:49.651Z,99380.63
2023-03-21T15:41:29.113Z,99344.66
2023-03-21T15:44:12.440Z,99374.13
2023-03-21T15:46:42.923Z,99377.47
2023-03-21T15:49:18.966Z,99371.81
2023-03-21T15:51:50.136Z,99370.47
2023-03-21T15:54:24.544Z,99370.53
2023-03-21T15:56:55.980Z,99375.56
2023-03-21T15:59:31.310Z,99378.31
2023-03-21T16:01:59.478Z,99375.84
2023-03-21T16:04:27.466Z,99374.16
2023-03-21T16:07:00.190Z,99369.91
2023-03-21T16:09:28.443Z,99375.00
2023-03-21T16:11:57.488Z,99380.03
2023-03-21T16:14:28.523Z,99386.84
2023-03-21T16:16:57.336Z,99386.44
2023-03-21T16:19:27.704Z,99384.19
2023-03-21T16:21:55.660Z,99382.56
2023-03-21T16:24:23.511Z,99379.28
2023-03-21T16:26:53.430Z,99390.28
2023-03-21T16:29:22.267Z,99381.03
2023-03-21T16:31:51.586Z,99391.31
2023-03-21T16:34:19.535Z,99396.50
2023-03-21T16:36:48.000Z,99391.59
2023-03-21T16:39:19.089Z,99394.25
2023-03-21T16:41:47.442Z,99397.69
2023-03-21T16:44:15.496Z,99401.91
2023-03-21T16:46:43.781Z,99392.66
2023-03-21T16:49:21.340Z,99392.69
2023-03-21T16:51:49.234Z,99394.38
2023-03-21T16:54:17.217Z,99403.63
2023-03-21T16:56:48.063Z,99410.34
2023-03-21T16:59:16.436Z,99417.06
2023-03-21T17:01:45.852Z,99413.66
2023-03-21T17:04:14.861Z,99412.75
2023-03-21T17:06:47.369Z,99420.28
2023-03-21T17:09:16.982Z,99419.41
2023-03-21T17:11:45.256Z,99416.84
2023-03-21T17:14:16.219Z,99415.13
2023-03-21T17:16:44.283Z,99417.59
2023-03-21T17:19:14.902Z,99424.28
2023-03-21T17:21:42.891Z,99430.09
2023-03-21T17:24:12.374Z,99425.03
2023-03-21T17:26:40.659Z,99432.56
2023-03-21T17:29:08.837Z,99433.38
2023-03-21T17:31:38.052Z,99431.69
2023-03-21T17:34:06.247Z,99430.81
2023-03-21T17:36:36.247Z,99436.69
2023-03-21T17:39:05.899Z,99437.47
2023-03-21T17:41:35.815Z,99381.78
2023-03-21T17:44:03.901Z,99442.44
2023-03-21T17:46:36.530Z,99430.59
2023-03-21T17:49:05.058Z,99439.00
2023-03-21T17:51:33.190Z,99440.66
2023-03-21T17:54:01.285Z,99435.56
2023-03-21T17:56:31.065Z,99447.31
2023-03-21T17:59:02.020Z,99441.44
2023-03-21T18:01:30.963Z,99423.63
2023-03-21T18:04:02.122Z,99456.47
2023-03-21T18:06:30.098Z,99455.59
2023-03-21T18:08:59.635Z,99450.53
2023-03-21T18:11:28.658Z,99455.53
2023-03-21T18:14:09.897Z,99457.97
2023-03-21T18:16:44.629Z,99458.75
2023-03-21T18:19:13.777Z,99453.56
2023-03-21T18:21:45.293Z,99465.38
2023-03-21T18:24:14.361Z,99468.69
2023-03-21T18:26:42.565Z,99469.53
2023-03-21T18:32:06.890Z,99476.13
2023-03-21T18:34:35.949Z,99481.13
2023-03-21T18:37:04.437Z,99483.53
2023-03-21T18:39:33.253Z,99491.03
2023-03-21T18:42:02.452Z,99496.03
2023-03-21T18:44:37.317Z,99495.22
2023-03-21T18:47:08.588Z,99497.69
2023-03-21T18:52:27.320Z,99498.50
2023-03-21T18:54:55.458Z,99490.03
2023-03-21T18:57:39.368Z,99488.38
2023-03-21T19:00:15.397Z,99485.84
2023-03-21T19:02:48.030Z,99487.50
2023-03-21T19:05:18.598Z,99487.50
2023-03-21T19:07:47.758Z,99482.41
2023-03-21T19:10:18.652Z,99492.50
2023-03-21T19:12:47.947Z,99490.88
2023-03-21T19:15:19.427Z,99500.91
2023-03-21T19:20:38.317Z,99504.16
2023-03-21T19:23:09.348Z,99500.72
2023-03-21T19:25:38.132Z,99509.13
2023-03-21T19:28:06.459Z,99508.31
2023-03-21T19:30:34.750Z,99500.72
2023-03-21T19:33:03.965Z,99504.09
2023-03-21T19:35:32.048Z,99505.75
2023-03-21T19:37:59.928Z,99499.81
2023-03-21T19:40:27.902Z,99504.03
2023-03-21T19:42:57.640Z,99499.03
2023-03-21T19:45:26.157Z,99513.34
2023-03-21T19:47:54.010Z,99500.78
2023-03-21T19:50:49.173Z,99508.34
2023-03-21T19:53:17.052Z,99509.19
2023-03-21T19:55:44.912Z,99509.25
2023-03-21T19:58:16.175Z,99511.00
2023-03-21T20:00:45.791Z,99504.25
2023-03-21T20:03:13.805Z,99516.84
2023-03-21T20:05:44.089Z,99512.69
2023-03-21T20:08:12.248Z,99509.38
2023-03-21T20:10:40.668Z,99522.78
2023-03-21T20:13:08.914Z,99516.03
2023-03-21T20:15:46.012Z,99518.34
2023-03-21T20:18:16.027Z,99513.25
2023-03-21T20:20:46.309Z,99518.16
2023-03-21T20:23:16.024Z,99520.63
2023-03-21T20:25:45.583Z,99514.53
2023-03-21T20:28:17.271Z,99512.84
2023-03-21T20:30:53.976Z,99513.75
2023-03-21T20:33:22.174Z,99516.38
2023-03-21T20:38:45.666Z,99523.25
2023-03-21T20:41:13.611Z,99519.75
2023-03-21T20:46:29.972Z,99522.09
2023-03-21T20:48:59.726Z,99515.41
2023-03-21T20:54:17.770Z,99524.50
2023-03-21T20:56:45.694Z,99517.00
2023-03-21T20:59:25.636Z,99521.19
2023-03-21T21:01:55.086Z,99525.31
2023-03-21T21:04:34.327Z,99525.19
2023-03-21T21:07:16.147Z,99523.44
2023-03-21T21:09:44.728Z,99525.09
2023-03-21T21:12:13.032Z,99522.69
2023-03-21T21:14:41.676Z,99521.81
2023-03-21T21:17:30.774Z,99522.59
2023-03-21T21:19:58.369Z,99528.88
2023-03-21T21:22:28.219Z,99526.56
2023-03-21T21:24:56.206Z,99531.41
2023-03-21T21:27:24.091Z,99520.44
2023-03-21T21:29:52.321Z,99518.91
2023-03-21T21:32:20.748Z,99518.41
2023-03-21T21:34:48.971Z,99522.72
2023-03-21T21:37:16.803Z,99519.41
2023-03-21T21:39:46.725Z,99518.56
2023-03-21T21:42:15.216Z,99517.72
2023-03-21T21:44:44.917Z,99519.34
2023-03-21T21:47:13.080Z,99543.72
2023-03-21T21:49:41.343Z,99547.88
2023-03-21T21:52:13.276Z,99552.88
2023-03-21T21:54:45.541Z,99544.41
2023-03-21T21:57:18.878Z,99539.34
2023-03-21T21:59:46.973Z,99550.25
2023-03-21T22:02:16.644Z,99555.31
2023-03-21T22:04:44.800Z,99564.31
2023-03-21T22:07:14.534Z,99556.25
2023-03-21T22:09:43.341Z,99555.06
2023-03-21T22:12:11.616Z,99554.97
2023-03-21T22:14:40.962Z,99548.56
2023-03-21T22:17:09.132Z,99557.22
2023-03-21T22:19:39.145Z,99556.59
2023-03-21T22:22:08.112Z,99559.25
2023-03-21T22:24:37.457Z,99559.41
2023-03-21T22:27:05.907Z,99555.31
2023-03-21T22:29:33.880Z,99552.91
2023-03-21T22:32:03.189Z,99549.56
2023-03-21T22:34:31.080Z,99549.59
2023-03-21T22:36:59.661Z,99552.16
2023-03-21T22:39:28.570Z,99552.22
2023-03-21T22:42:00.874Z,99548.88
2023-03-21T22:44:34.425Z,99560.59
2023-03-21T22:47:05.195Z,99554.78
2023-03-21T22:49:33.757Z,99551.34
2023-03-21T22:52:03.261Z,99547.81
2023-03-21T22:54:31.979Z,99551.19
2023-03-21T22:57:00.210Z,99546.84
2023-03-21T22:59:28.427Z,99541.84
2023-03-21T23:01:56.719Z,99540.06
2023-03-21T23:04:27.302Z,99540.13
2023-03-21T23:06:55.750Z,99541.84
2023-03-21T23:09:23.965Z,99547.56
2023-03-21T23:11:51.932Z,99544.16
2023-03-21T23:14:20.830Z,99544.03
2023-03-21T23:16:49.689Z,99537.22
2023-03-21T23:19:19.918Z,99543.22
2023-03-21T23:21:49.138Z,99545.81
2023-03-21T23:24:17.082Z,99545.88
2023-03-21T23:26:44.991Z,99544.16
2023-03-21T23:29:12.858Z,99545.44
2023-03-21T23:31:41.516Z,99549.97
2023-03-21T23:34:09.473Z,99550.94
2023-03-21T23:36:37.513Z,99548.16
2023-03-21T23:39:06.772Z,99542.28
2023-03-21T23:41:34.724Z,99540.06
2023-03-21T23:44:02.750Z,99537.22
2023-03-21T23:46:31.889Z,99539.22
2023-03-21T23:48:59.774Z,99551.22
2023-03-21T23:51:27.828Z,99548.91
2023-03-21T23:53:56.588Z,99540.72
2023-03-21T23:56:28.305Z,99545.06
2023-03-21T23:58:58.239Z,99542.63
